createdAt,value
2023-02-12T00:01:23.974Z,69.91
2023-02-12T00:03:51.122Z,69.75
2023-02-12T00:06:18.239Z,69.80
2023-02-12T00:08:45.409Z,70.13
2023-02-12T00:11:19.057Z,70.60
2023-02-12T00:13:46.190Z,70.51
2023-02-12T00:16:20.368Z,70.39
2023-02-12T00:18:48.490Z,70.52
2023-02-12T00:21:17.340Z,70.42
2023-02-12T00:23:44.464Z,70.51
2023-02-12T00:26:15.594Z,70.72
2023-02-12T00:28:43.041Z,70.57
2023-02-12T00:31:21.749Z,70.24
2023-02-12T00:33:49.232Z,69.70
2023-02-12T00:36:23.002Z,69.49
2023-02-12T00:38:53.139Z,69.28
2023-02-12T00:41:20.862Z,68.89
2023-02-12T00:43:48.888Z,68.80
2023-02-12T00:46:16.182Z,68.77
2023-02-12T00:48:43.434Z,68.98
2023-02-12T00:51:10.582Z,68.87
2023-02-12T00:53:38.170Z,68.45
2023-02-12T00:56:05.723Z,68.34
2023-02-12T00:58:32.772Z,68.22
2023-02-12T01:00:59.824Z,68.65
2023-02-12T01:03:27.221Z,68.28
2023-02-12T01:05:54.762Z,68.02
2023-02-12T01:08:22.572Z,67.76
2023-02-12T01:11:02.156Z,68.11
2023-02-12T01:13:30.608Z,68.36
2023-02-12T01:16:13.740Z,68.03
2023-02-12T01:18:40.823Z,67.93
2023-02-12T01:21:29.221Z,68.13
2023-02-12T01:23:57.107Z,67.78
2023-02-12T01:26:24.951Z,67.81
2023-02-12T01:28:58.493Z,67.93
2023-02-12T01:31:33.020Z,67.55
2023-02-12T01:34:01.271Z,67.77
2023-02-12T01:36:30.575Z,67.75
2023-02-12T01:39:02.899Z,67.39
2023-02-12T01:41:34.169Z,66.80
2023-02-12T01:44:19.342Z,66.93
2023-02-12T01:46:57.795Z,67.01
2023-02-12T01:49:44.711Z,66.74
2023-02-12T01:52:27.989Z,66.68
2023-02-12T01:54:59.492Z,66.72
2023-02-12T01:57:30.997Z,66.87
2023-02-12T02:00:00.316Z,66.46
2023-02-12T02:02:28.007Z,66.41
2023-02-12T02:05:01.842Z,66.68
2023-02-12T02:07:29.746Z,66.29
2023-02-12T02:10:01.797Z,66.57
2023-02-12T02:12:48.592Z,66.16
2023-02-12T02:15:15.718Z,65.82
2023-02-12T02:17:57.913Z,65.88
2023-02-12T02:21:08.604Z,65.62
2023-02-12T02:24:31.247Z,65.87
2023-02-12T02:27:17.577Z,66.08
2023-02-12T02:30:12.113Z,65.71
2023-02-12T02:32:58.928Z,65.60
2023-02-12T02:35:57.112Z,66.38
2023-02-12T02:38:39.219Z,65.82
2023-02-12T02:41:29.239Z,65.46
2023-02-12T02:43:56.590Z,64.90
2023-02-12T02:46:58.723Z,65.15
2023-02-12T02:49:41.340Z,64.68
2023-02-12T02:52:14.795Z,64.42
2023-02-12T02:55:01.290Z,64.37
2023-02-12T02:57:57.523Z,64.06
2023-02-12T03:00:48.900Z,63.40
2023-02-12T03:03:46.822Z,62.84
2023-02-12T03:06:28.085Z,63.07
2023-02-12T03:09:05.371Z,63.23
2023-02-12T03:11:34.462Z,62.92
2023-02-12T03:14:26.871Z,63.25
2023-02-12T03:17:10.578Z,63.30
2023-02-12T03:19:57.299Z,63.19
2023-02-12T03:22:35.662Z,63.04
2023-02-12T03:25:15.120Z,63.08
2023-02-12T03:28:22.593Z,62.97
2023-02-12T03:31:33.483Z,62.79
2023-02-12T03:34:27.774Z,62.86
2023-02-12T03:37:00.786Z,62.79
2023-02-12T03:39:41.096Z,62.94
2023-02-12T03:42:16.204Z,62.64
2023-02-12T03:45:10.969Z,62.63
2023-02-12T03:47:51.577Z,62.57
2023-02-12T03:50:36.854Z,62.86
2023-02-12T03:53:05.167Z,62.82
2023-02-12T03:55:36.783Z,63.04
2023-02-12T03:58:07.546Z,63.32
2023-02-12T04:00:34.664Z,63.49
2023-02-12T04:03:02.000Z,63.42
2023-02-12T04:05:29.107Z,63.13
2023-02-12T04:07:58.741Z,63.55
2023-02-12T04:10:47.220Z,63.23
2023-02-12T04:13:38.690Z,63.17
2023-02-12T04:17:05.551Z,62.89
2023-02-12T04:19:52.652Z,62.98
2023-02-12T04:22:36.763Z,62.63
2023-02-12T04:25:22.807Z,62.51
2023-02-12T04:28:27.634Z,62.45
2023-02-12T04:31:07.781Z,61.86
2023-02-12T04:33:57.469Z,62.19
2023-02-12T04:36:32.156Z,61.87
2023-02-12T04:39:11.151Z,61.87
2023-02-12T04:41:39.718Z,62.07
2023-02-12T04:44:26.093Z,61.89
2023-02-12T04:46:53.666Z,61.96
2023-02-12T04:49:22.881Z,62.18
2023-02-12T04:51:50.647Z,62.28
2023-02-12T04:54:20.001Z,61.89
2023-02-12T04:56:47.937Z,62.07
2023-02-12T04:59:15.772Z,61.92
2023-02-12T05:01:44.317Z,61.87
2023-02-12T05:04:15.215Z,61.79
2023-02-12T05:06:43.817Z,62.05
2023-02-12T05:09:17.096Z,62.36
2023-02-12T05:11:44.593Z,62.42
2023-02-12T05:14:12.377Z,62.67
2023-02-12T05:16:39.404Z,62.72
2023-02-12T05:19:09.506Z,62.60
2023-02-12T05:21:38.367Z,62.54
2023-02-12T05:24:06.467Z,62.34
2023-02-12T05:26:33.988Z,62.37
2023-02-12T05:29:01.301Z,62.06
2023-02-12T05:31:28.587Z,61.85
2023-02-12T05:33:55.635Z,61.86
2023-02-12T05:36:25.055Z,62.04
2023-02-12T05:38:53.834Z,61.82
2023-02-12T05:41:24.532Z,61.82
2023-02-12T05:43:52.570Z,62.09
2023-02-12T05:46:21.520Z,62.35
2023-02-12T05:48:48.710Z,62.05
2023-02-12T05:51:23.281Z,62.51
2023-02-12T05:53:53.739Z,62.39
2023-02-12T05:56:24.904Z,62.58
2023-02-12T05:58:59.592Z,62.81
2023-02-12T06:01:30.697Z,62.70
2023-02-12T06:04:03.994Z,62.97
2023-02-12T06:06:32.651Z,63.05
2023-02-12T06:09:00.040Z,63.45
2023-02-12T06:11:28.040Z,63.66
2023-02-12T06:13:55.115Z,63.04
2023-02-12T06:16:24.798Z,63.20
2023-02-12T06:18:53.768Z,63.34
2023-02-12T06:21:23.553Z,62.54
2023-02-12T06:23:52.243Z,62.94
2023-02-12T06:26:20.191Z,63.47
2023-02-12T06:28:48.081Z,63.20
2023-02-12T06:31:30.408Z,63.19
2023-02-12T06:34:02.635Z,62.48
2023-02-12T06:36:29.848Z,62.29
2023-02-12T06:38:57.383Z,62.03
2023-02-12T06:41:24.947Z,61.71
2023-02-12T06:43:52.090Z,61.69
2023-02-12T06:46:19.978Z,61.19
2023-02-12T06:48:47.085Z,60.63
2023-02-12T06:51:18.052Z,59.82
2023-02-12T06:53:45.354Z,59.21
2023-02-12T06:56:14.030Z,59.10
2023-02-12T06:58:45.134Z,58.99
2023-02-12T07:01:25.329Z,58.93
2023-02-12T07:04:02.473Z,55.82
2023-02-12T07:06:31.886Z,48.96
2023-02-12T07:08:59.217Z,44.21
2023-02-12T07:11:29.299Z,41.78
2023-02-12T07:13:56.724Z,39.38
2023-02-12T07:16:24.018Z,37.65
2023-02-12T07:18:51.274Z,36.54
2023-02-12T07:21:19.795Z,35.37
2023-02-12T07:23:51.284Z,34.02
2023-02-12T07:26:21.009Z,32.18
2023-02-12T07:28:49.439Z,32.11
2023-02-12T07:31:22.996Z,31.59
2023-02-12T07:33:55.440Z,31.45
2023-02-12T07:36:23.488Z,32.19
2023-02-12T07:38:51.127Z,31.93
2023-02-12T07:41:22.454Z,31.52
2023-02-12T07:43:58.933Z,31.22
2023-02-12T07:46:31.379Z,30.77
2023-02-12T07:49:00.821Z,30.75
2023-02-12T07:51:29.041Z,30.09
2023-02-12T07:53:56.523Z,29.71
2023-02-12T07:56:32.417Z,29.16
2023-02-12T07:59:07.240Z,28.92
2023-02-12T08:01:45.426Z,29.63
2023-02-12T08:04:15.596Z,28.20
2023-02-12T08:06:48.669Z,27.74
2023-02-12T08:09:19.774Z,27.42
2023-02-12T08:11:47.522Z,26.85
2023-02-12T08:14:18.819Z,26.27
2023-02-12T08:16:47.652Z,26.17
2023-02-12T08:19:20.465Z,26.35
2023-02-12T08:21:53.577Z,27.11
2023-02-12T08:24:22.291Z,27.23
2023-02-12T08:26:49.770Z,27.63
2023-02-12T08:29:20.659Z,27.44
2023-02-12T08:31:50.198Z,28.13
2023-02-12T08:34:25.894Z,27.39
2023-02-12T08:36:54.711Z,27.37
2023-02-12T08:39:23.637Z,27.64
2023-02-12T08:41:51.266Z,26.60
2023-02-12T08:44:18.340Z,26.76
2023-02-12T08:46:50.274Z,25.83
2023-02-12T08:49:24.729Z,26.13
2023-02-12T08:51:55.158Z,25.87
2023-02-12T08:54:25.705Z,25.12
2023-02-12T08:56:58.952Z,24.90
2023-02-12T08:59:26.785Z,24.90
2023-02-12T09:01:55.064Z,24.74
2023-02-12T09:04:26.416Z,24.15
2023-02-12T09:06:54.042Z,24.29
2023-02-12T09:09:21.988Z,23.58
2023-02-12T09:11:49.529Z,24.00
2023-02-12T09:14:18.806Z,23.60
2023-02-12T09:16:46.084Z,23.17
2023-02-12T09:19:15.319Z,23.22
2023-02-12T09:21:42.846Z,23.20
2023-02-12T09:24:10.989Z,22.99
2023-02-12T09:26:39.505Z,22.41
2023-02-12T09:29:06.626Z,22.10
2023-02-12T09:31:34.210Z,22.42
2023-02-12T09:34:07.034Z,22.02
2023-02-12T09:36:34.401Z,21.97
2023-02-12T09:39:01.792Z,21.81
2023-02-12T09:42:15.435Z,21.41
2023-02-12T09:45:19.920Z,20.82
2023-02-12T09:48:16.281Z,21.07
2023-02-12T09:50:52.704Z,21.24
2023-02-12T09:53:31.869Z,20.93
2023-02-12T09:55:59.425Z,20.43
2023-02-12T09:58:53.109Z,20.71
2023-02-12T10:01:22.228Z,20.30
2023-02-12T10:03:52.261Z,19.81
2023-02-12T10:06:41.668Z,20.23
2023-02-12T10:09:23.465Z,20.21
2023-02-12T10:12:26.620Z,20.26
2023-02-12T10:15:44.083Z,19.96
2023-02-12T10:18:58.084Z,19.93
2023-02-12T10:21:31.096Z,20.09
2023-02-12T10:24:56.980Z,20.12
2023-02-12T10:27:50.086Z,20.26
2023-02-12T10:30:45.664Z,20.38
2023-02-12T10:33:24.869Z,20.38
2023-02-12T10:36:01.053Z,20.54
2023-02-12T10:38:35.366Z,20.40
2023-02-12T10:41:02.875Z,20.99
2023-02-12T10:43:30.671Z,20.79
2023-02-12T10:45:58.566Z,20.86
2023-02-12T10:48:38.040Z,21.06
2023-02-12T10:51:07.998Z,21.15
2023-02-12T10:53:40.801Z,21.25
2023-02-12T10:56:12.990Z,21.42
2023-02-12T10:59:03.357Z,21.70
2023-02-12T11:01:38.687Z,21.47
2023-02-12T11:04:29.526Z,21.66
2023-02-12T11:07:12.000Z,21.72
2023-02-12T11:09:52.201Z,21.93
2023-02-12T11:12:48.065Z,22.38
2023-02-12T11:15:26.021Z,22.31
2023-02-12T11:18:26.271Z,22.36
2023-02-12T11:21:12.364Z,22.36
2023-02-12T11:23:42.961Z,22.64
2023-02-12T11:26:18.437Z,22.47
2023-02-12T11:29:17.289Z,22.89
2023-02-12T11:32:10.174Z,23.21
2023-02-12T11:34:37.576Z,23.61
2023-02-12T11:37:12.259Z,23.74
2023-02-12T11:39:40.611Z,24.10
2023-02-12T11:42:25.840Z,24.12
2023-02-12T11:44:58.292Z,24.43
2023-02-12T11:47:33.821Z,24.74
2023-02-12T11:50:30.289Z,25.17
2023-02-12T11:53:04.036Z,25.18
2023-02-12T11:55:39.534Z,25.29
2023-02-12T11:58:25.059Z,25.57
2023-02-12T12:01:21.044Z,25.60
2023-02-12T12:04:18.505Z,25.37
2023-02-12T12:07:15.559Z,24.58
2023-02-12T12:10:08.329Z,24.75
2023-02-12T12:12:59.760Z,25.36
2023-02-12T12:15:59.079Z,25.84
2023-02-12T12:19:01.922Z,26.57
2023-02-12T12:21:45.897Z,26.97
2023-02-12T12:24:39.990Z,26.86
2023-02-12T12:28:03.349Z,27.04
2023-02-12T12:31:42.816Z,27.45
2023-02-12T12:34:23.704Z,27.18
2023-02-12T12:37:19.410Z,27.65
2023-02-12T12:40:28.380Z,28.09
2023-02-12T12:43:26.598Z,29.01
2023-02-12T12:46:25.226Z,29.80
2023-02-12T12:49:07.100Z,30.02
2023-02-12T12:52:03.500Z,30.01
2023-02-12T12:54:52.168Z,31.03
2023-02-12T12:57:46.658Z,31.44
2023-02-12T13:00:33.144Z,31.54
2023-02-12T13:03:53.068Z,32.14
2023-02-12T13:06:55.491Z,32.70
2023-02-12T13:09:59.917Z,32.80
2023-02-12T13:12:49.516Z,33.69
2023-02-12T13:15:30.183Z,33.78
2023-02-12T13:18:20.652Z,34.18
2023-02-12T13:21:16.692Z,34.20
2023-02-12T13:24:05.485Z,34.32
2023-02-12T13:26:58.938Z,35.01
2023-02-12T13:29:41.942Z,34.98
2023-02-12T13:32:17.968Z,35.38
2023-02-12T13:34:45.240Z,35.60
2023-02-12T13:37:25.133Z,36.32
2023-02-12T13:39:53.239Z,36.35
2023-02-12T13:43:04.468Z,36.30
2023-02-12T13:46:07.186Z,36.89
2023-02-12T13:49:07.334Z,37.06
2023-02-12T13:51:50.483Z,37.67
2023-02-12T13:54:37.436Z,37.92
2023-02-12T13:57:15.019Z,37.92
2023-02-12T13:59:45.904Z,37.89
2023-02-12T14:02:12.926Z,38.14
2023-02-12T14:04:47.704Z,38.58
2023-02-12T14:07:16.419Z,38.74
2023-02-12T14:09:52.676Z,39.20
2023-02-12T14:12:25.588Z,39.21
2023-02-12T14:15:34.721Z,39.58
2023-02-12T14:18:36.204Z,39.89
2023-02-12T14:21:12.269Z,40.02
2023-02-12T14:23:46.786Z,40.65
2023-02-12T14:26:19.419Z,40.74
2023-02-12T14:28:59.339Z,40.40
2023-02-12T14:31:34.055Z,41.48
2023-02-12T14:34:07.661Z,41.76
2023-02-12T14:36:40.745Z,41.81
2023-02-12T14:39:22.532Z,42.20
2023-02-12T14:41:55.416Z,42.09
2023-02-12T14:44:26.851Z,42.83
2023-02-12T14:46:56.382Z,43.14
2023-02-12T14:49:34.194Z,43.58
2023-02-12T14:52:33.922Z,43.40
2023-02-12T14:55:17.405Z,43.91
2023-02-12T14:57:45.126Z,44.28
2023-02-12T15:00:18.027Z,44.35
2023-02-12T15:02:59.674Z,44.33
2023-02-12T15:05:48.104Z,45.23
2023-02-12T15:08:48.788Z,45.58
2023-02-12T15:11:39.387Z,45.58
2023-02-12T15:14:15.448Z,46.37
2023-02-12T15:17:05.153Z,46.62
2023-02-12T15:20:21.543Z,46.72
2023-02-12T15:22:48.655Z,47.07
2023-02-12T15:25:29.496Z,46.91
2023-02-12T15:28:11.868Z,47.28
2023-02-12T15:30:43.084Z,48.52
2023-02-12T15:33:24.788Z,48.33
2023-02-12T15:35:53.088Z,48.94
2023-02-12T15:38:37.315Z,49.17
2023-02-12T15:41:06.620Z,49.01
2023-02-12T15:43:40.195Z,49.17
2023-02-12T15:46:16.826Z,49.73
2023-02-12T15:48:45.091Z,49.53
2023-02-12T15:51:39.108Z,50.05
2023-02-12T15:54:07.813Z,50.48
2023-02-12T15:56:36.354Z,50.45
2023-02-12T15:59:04.127Z,50.51
2023-02-12T16:01:35.560Z,50.84
2023-02-12T16:04:08.460Z,51.33
2023-02-12T16:06:39.607Z,51.62
2023-02-12T16:09:27.445Z,51.45
2023-02-12T16:11:55.668Z,51.50
2023-02-12T16:14:46.558Z,52.09
2023-02-12T16:17:46.803Z,52.32
2023-02-12T16:20:18.971Z,52.49
2023-02-12T16:22:50.692Z,52.38
2023-02-12T16:25:33.656Z,52.96
2023-02-12T16:28:30.226Z,53.16
2023-02-12T16:31:14.711Z,53.15
2023-02-12T16:33:48.782Z,53.63
2023-02-12T16:36:24.356Z,54.20
2023-02-12T16:39:08.510Z,54.20
2023-02-12T16:41:55.220Z,54.65
2023-02-12T16:44:26.889Z,54.76
2023-02-12T16:46:58.517Z,55.01
2023-02-12T16:49:27.020Z,55.81
2023-02-12T16:52:15.101Z,56.07
2023-02-12T16:54:42.117Z,56.17
2023-02-12T16:57:11.752Z,56.81
2023-02-12T16:59:43.382Z,57.09
2023-02-12T17:02:15.676Z,57.64
2023-02-12T17:04:42.951Z,57.90
2023-02-12T17:07:27.497Z,58.40
2023-02-12T17:09:54.906Z,58.60
2023-02-12T17:12:21.968Z,58.71
2023-02-12T17:14:49.001Z,59.11
2023-02-12T17:17:16.285Z,58.84
2023-02-12T17:19:43.468Z,59.31
2023-02-12T17:22:36.750Z,59.30
2023-02-12T17:25:04.040Z,59.64
2023-02-12T17:27:31.082Z,59.99
2023-02-12T17:29:58.057Z,59.89
2023-02-12T17:32:25.489Z,60.17
2023-02-12T17:34:52.575Z,60.33
2023-02-12T17:37:22.232Z,60.80
2023-02-12T17:39:49.224Z,61.29
2023-02-12T17:42:16.913Z,61.33
2023-02-12T17:44:44.186Z,61.75
2023-02-12T17:47:11.191Z,62.79
2023-02-12T17:49:39.916Z,62.59
2023-02-12T17:52:07.551Z,63.46
2023-02-12T17:54:34.912Z,62.79
2023-02-12T17:57:01.983Z,63.38
2023-02-12T17:59:29.298Z,64.00
2023-02-12T18:01:56.595Z,64.29
2023-02-12T18:04:23.710Z,64.22
2023-02-12T18:06:50.696Z,64.42
2023-02-12T18:09:17.699Z,63.69
2023-02-12T18:11:44.806Z,63.74
2023-02-12T18:14:12.237Z,63.78
2023-02-12T18:16:39.246Z,64.00
2023-02-12T18:19:06.291Z,63.91
2023-02-12T18:21:35.082Z,64.00
2023-02-12T18:24:03.170Z,64.07
2023-02-12T18:26:30.258Z,63.96
2023-02-12T18:29:01.216Z,64.93
2023-02-12T18:31:29.147Z,64.94
2023-02-12T18:33:56.433Z,64.80
2023-02-12T18:36:23.570Z,65.56
2023-02-12T18:38:52.011Z,65.55
2023-02-12T18:41:24.396Z,66.01
2023-02-12T18:43:51.913Z,65.56
2023-02-12T18:46:23.600Z,65.86
2023-02-12T18:48:51.128Z,65.77
2023-02-12T18:51:22.670Z,65.94
2023-02-12T18:54:02.488Z,66.40
2023-02-12T18:56:32.983Z,65.27
2023-02-12T18:59:02.840Z,64.88
2023-02-12T19:01:29.897Z,66.56
2023-02-12T19:04:00.301Z,66.79
2023-02-12T19:06:29.642Z,66.63
2023-02-12T19:08:58.642Z,66.23
2023-02-12T19:11:27.023Z,66.31
2023-02-12T19:13:54.592Z,66.83
2023-02-12T19:16:23.955Z,67.17
2023-02-12T19:18:54.855Z,67.59
2023-02-12T19:21:26.164Z,67.44
2023-02-12T19:23:59.639Z,67.95
2023-02-12T19:26:29.805Z,67.98
2023-02-12T19:28:57.988Z,68.61
2023-02-12T19:31:30.438Z,68.92
2023-02-12T19:34:06.551Z,68.91
2023-02-12T19:36:36.424Z,69.28
2023-02-12T19:39:05.911Z,69.47
2023-02-12T19:41:33.162Z,69.50
2023-02-12T19:44:01.746Z,69.75
2023-02-12T19:46:31.154Z,69.86
2023-02-12T19:49:02.557Z,70.01
2023-02-12T19:51:30.894Z,70.08
2023-02-12T19:54:04.368Z,70.03
2023-02-12T19:56:31.650Z,70.22
2023-02-12T19:58:59.147Z,70.29
2023-02-12T20:01:26.786Z,70.61
2023-02-12T20:03:54.503Z,70.66
2023-02-12T20:06:34.676Z,70.89
2023-02-12T20:09:02.510Z,71.22
2023-02-12T20:11:34.393Z,71.50
2023-02-12T20:14:02.404Z,71.97
2023-02-12T20:16:37.525Z,72.04
2023-02-12T20:19:25.342Z,72.30
2023-02-12T20:21:56.740Z,72.21
2023-02-12T20:24:27.353Z,72.63
2023-02-12T20:26:55.155Z,73.37
2023-02-12T20:29:22.996Z,73.62
2023-02-12T20:31:50.567Z,73.61
2023-02-12T20:34:20.031Z,73.67
2023-02-12T20:36:47.894Z,74.29
2023-02-12T20:39:18.727Z,73.43
2023-02-12T20:41:45.860Z,73.72
2023-02-12T20:44:17.412Z,74.20
2023-02-12T20:46:47.117Z,74.53
2023-02-12T20:49:17.062Z,74.90
2023-02-12T20:51:45.805Z,75.08
2023-02-12T20:54:13.551Z,75.42
2023-02-12T20:56:40.823Z,75.67
2023-02-12T20:59:08.407Z,76.18
2023-02-12T21:01:39.207Z,76.36
2023-02-12T21:04:16.901Z,76.66
2023-02-12T21:06:45.644Z,76.72
2023-02-12T21:09:14.721Z,77.19
2023-02-12T21:11:45.755Z,77.39
2023-02-12T21:14:23.435Z,77.76
2023-02-12T21:16:54.003Z,78.60
2023-02-12T21:19:21.997Z,77.96
2023-02-12T21:21:49.368Z,78.85
2023-02-12T21:24:21.605Z,79.19
2023-02-12T21:26:49.399Z,80.01
2023-02-12T21:29:16.543Z,80.72
2023-02-12T21:31:47.027Z,81.17
2023-02-12T21:34:19.418Z,81.94
2023-02-12T21:36:48.557Z,81.71
2023-02-12T21:39:28.712Z,82.63
2023-02-12T21:42:03.163Z,83.19
2023-02-12T21:44:35.321Z,83.72
2023-02-12T21:47:03.392Z,83.94
2023-02-12T21:49:30.446Z,84.11
2023-02-12T21:52:02.223Z,84.29
2023-02-12T21:54:30.567Z,84.60
2023-02-12T21:56:58.559Z,84.47
2023-02-12T21:59:26.646Z,84.40
2023-02-12T22:01:56.373Z,84.99
2023-02-12T22:04:23.533Z,85.18
2023-02-12T22:06:52.843Z,84.95
2023-02-12T22:09:22.830Z,84.81
2023-02-12T22:11:52.243Z,85.28
2023-02-12T22:14:21.079Z,85.78
2023-02-12T22:16:48.268Z,85.97
2023-02-12T22:19:15.782Z,86.49
2023-02-12T22:21:44.444Z,86.62
2023-02-12T22:24:15.550Z,87.00
2023-02-12T22:26:44.310Z,86.97
2023-02-12T22:29:14.673Z,86.87
2023-02-12T22:31:44.355Z,87.11
2023-02-12T22:34:17.248Z,87.38
2023-02-12T22:36:45.323Z,86.84
2023-02-12T22:39:13.999Z,87.08
2023-02-12T22:41:42.447Z,88.33
2023-02-12T22:44:12.441Z,88.63
2023-02-12T22:46:40.035Z,88.15
2023-02-12T22:49:07.056Z,88.25
2023-02-12T22:51:35.976Z,88.76
2023-02-12T22:54:03.922Z,88.72
2023-02-12T22:56:31.013Z,88.79
2023-02-12T22:59:01.132Z,89.01
2023-02-12T23:01:29.720Z,89.35
2023-02-12T23:03:57.198Z,89.41
2023-02-12T23:06:29.991Z,89.75
2023-02-12T23:09:02.048Z,89.58
2023-02-12T23:11:31.659Z,89.25
2023-02-12T23:13:59.402Z,89.39
2023-02-12T23:16:26.665Z,90.32
2023-02-12T23:18:59.550Z,90.24
2023-02-12T23:21:28.931Z,90.45
2023-02-12T23:23:56.795Z,89.76
2023-02-12T23:26:23.820Z,90.13
2023-02-12T23:28:50.938Z,89.63
2023-02-12T23:31:18.160Z,89.94
2023-02-12T23:33:45.287Z,89.78
2023-02-12T23:36:12.313Z,89.68
2023-02-12T23:38:39.307Z,90.65
2023-02-12T23:41:06.490Z,90.80
2023-02-12T23:43:33.566Z,90.25
2023-02-12T23:46:00.900Z,90.32
2023-02-12T23:48:28.039Z,90.72
2023-02-12T23:50:55.553Z,91.02
2023-02-12T23:53:22.864Z,90.83
2023-02-12T23:55:51.360Z,90.79
2023-02-12T23:58:18.450Z,90.52
